Time;durP1;ratioP1;P1;durP2;ratioP2;P2;SDS_P1;SDS_P2;PMS_P1;PMS_P2;Temp;Humidity;BMP_temperature;BMP_pressure;BME280_temperature;BME280_humidity;BME280_pressure;Samples;Min_cycle;Max_cycle;Signal;HPM_P1;HPM_P2
2023/05/10 00:00:00;;;;;;;7.00;3.40;;;13.60;66.70;;;;;;4971583;28;20049;-68
2023/05/10 00:02:26;;;;;;;4.72;3.00;;;13.50;67.00;;;;;;4971950;28;20046;-68
2023/05/10 00:04:52;;;;;;;6.07;3.40;;;13.50;67.30;;;;;;4974713;28;20042;-67
2023/05/10 00:07:18;;;;;;;5.28;3.13;;;13.50;67.50;;;;;;4973406;28;20046;-68
2023/05/10 00:09:44;;;;;;;5.88;3.30;;;13.50;67.50;;;;;;4968645;28;20505;-67
2023/05/10 00:12:09;;;;;;;4.75;3.25;;;13.40;67.50;;;;;;4973086;28;20120;-68
2023/05/10 00:14:35;;;;;;;5.90;3.13;;;13.40;67.70;;;;;;4970356;28;20458;-68
2023/05/10 00:17:01;;;;;;;5.32;3.40;;;13.40;67.80;;;;;;4967666;28;20089;-68
2023/05/10 00:19:27;;;;;;;4.80;3.60;;;13.40;67.70;;;;;;4971201;28;20030;-68
2023/05/10 00:21:53;;;;;;;5.93;3.63;;;13.40;67.80;;;;;;4971666;28;20825;-67
2023/05/10 00:24:18;;;;;;;5.22;3.28;;;13.40;67.70;;;;;;4975191;28;20117;-68
2023/05/10 00:26:44;;;;;;;4.57;3.40;;;13.40;68.00;;;;;;4957561;28;20579;-68
2023/05/10 00:29:10;;;;;;;8.23;3.92;;;13.40;68.00;;;;;;4959057;28;20035;-67
2023/05/10 00:31:36;;;;;;;9.25;3.20;;;13.30;68.10;;;;;;4972493;28;20057;-67
2023/05/10 00:34:03;;;;;;;5.93;3.55;;;13.20;68.40;;;;;;4976391;28;20042;-67
2023/05/10 00:36:29;;;;;;;6.13;3.20;;;13.20;68.20;;;;;;4970815;28;20757;-67
2023/05/10 00:38:55;;;;;;;4.45;2.85;;;13.20;68.70;;;;;;4975549;28;20035;-67
2023/05/10 00:41:21;;;;;;;7.38;3.92;;;13.20;68.80;;;;;;4940201;28;20051;-68
2023/05/10 00:43:48;;;;;;;5.28;3.20;;;13.20;69.00;;;;;;4952429;28;20494;-68
2023/05/10 00:46:16;;;;;;;9.73;3.97;;;13.20;68.90;;;;;;4949412;28;20043;-68
2023/05/10 00:48:43;;;;;;;3.60;3.25;;;13.30;68.80;;;;;;4971614;28;20546;-67
2023/05/10 00:51:09;;;;;;;5.85;3.40;;;13.20;68.60;;;;;;4949592;28;20037;-67
2023/05/10 00:53:35;;;;;;;5.43;3.60;;;13.20;68.80;;;;;;4950462;28;20030;-67
2023/05/10 00:56:03;;;;;;;5.47;3.55;;;13.20;69.10;;;;;;4956343;28;20088;-67
2023/05/10 00:58:30;;;;;;;4.05;3.60;;;13.20;69.00;;;;;;4966122;28;20042;-67
2023/05/10 01:00:57;;;;;;;7.40;3.65;;;13.20;69.40;;;;;;4968356;28;20062;-67
2023/05/10 01:03:23;;;;;;;4.70;3.47;;;13.10;69.10;;;;;;4967964;28;20037;-68
2023/05/10 01:05:49;;;;;;;7.57;3.78;;;13.20;69.30;;;;;;4951518;28;20031;-68
2023/05/10 01:08:15;;;;;;;4.80;3.42;;;13.20;69.20;;;;;;4953808;28;20031;-67
2023/05/10 01:10:42;;;;;;;5.50;3.55;;;13.10;69.50;;;;;;4948926;28;20455;-67
2023/05/10 01:13:08;;;;;;;4.63;3.22;;;13.10;69.40;;;;;;4965122;28;20557;-67
2023/05/10 01:15:35;;;;;;;8.23;4.13;;;13.00;69.70;;;;;;4971978;28;20410;-68
2023/05/10 01:18:01;;;;;;;4.57;3.67;;;13.00;70.00;;;;;;4967135;28;20044;-67
2023/05/10 01:20:39;;;;;;;5.53;3.50;;;13.00;69.80;;;;;;4966267;28;20121;-68
2023/05/10 01:23:31;;;;;;;5.28;3.63;;;13.00;70.00;;;;;;4967692;28;20041;-67
2023/05/10 01:26:16;;;;;;;5.72;3.55;;;13.00;69.90;;;;;;4969076;28;20042;-67
2023/05/10 01:28:54;;;;;;;7.60;3.60;;;12.90;70.00;;;;;;4965108;28;20110;-67
2023/05/10 01:31:31;;;;;;;5.18;3.10;;;13.00;70.60;;;;;;4950454;28;20135;-67
2023/05/10 01:34:20;;;;;;;5.38;3.70;;;12.90;70.10;;;;;;4949867;28;20555;-68
2023/05/10 01:37:05;;;;;;;4.00;3.60;;;12.90;70.20;;;;;;4972664;28;20054;-68
2023/05/10 01:39:44;;;;;;;5.82;3.65;;;12.90;70.20;;;;;;4966530;28;20133;-68
2023/05/10 01:42:14;;;;;;;5.68;3.60;;;12.80;70.80;;;;;;4966638;28;20053;-68
2023/05/10 01:45:08;;;;;;;4.40;3.30;;;12.90;70.40;;;;;;4946984;28;20035;-67
2023/05/10 01:47:43;;;;;;;5.50;3.70;;;12.90;70.40;;;;;;4960270;28;20038;-68
2023/05/10 01:50:22;;;;;;;6.20;3.38;;;12.90;70.70;;;;;;4972642;28;20043;-67
2023/05/10 01:52:54;;;;;;;4.60;3.47;;;12.80;71.00;;;;;;4955646;28;20499;-68
2023/05/10 01:55:22;;;;;;;4.32;3.35;;;12.70;71.00;;;;;;4945516;28;20085;-68
2023/05/10 01:57:55;;;;;;;6.88;4.10;;;12.70;70.90;;;;;;4958298;28;20093;-68
2023/05/10 02:00:23;;;;;;;4.40;3.63;;;12.70;71.20;;;;;;4954261;28;20288;-68
2023/05/10 02:02:52;;;;;;;5.32;3.45;;;12.70;71.20;;;;;;4956702;28;20035;-67
2023/05/10 02:05:20;;;;;;;5.03;3.60;;;12.70;71.00;;;;;;4950079;28;20042;-67
2023/05/10 02:07:51;;;;;;;4.45;3.70;;;12.70;71.50;;;;;;4967972;28;20054;-67
2023/05/10 02:10:17;;;;;;;6.90;4.03;;;12.60;71.50;;;;;;4953048;28;20031;-67
2023/05/10 02:12:47;;;;;;;6.72;3.95;;;12.60;71.20;;;;;;4955500;28;20027;-67
2023/05/10 02:15:18;;;;;;;6.15;4.20;;;12.60;71.10;;;;;;4974772;28;20034;-67
2023/05/10 02:17:46;;;;;;;6.93;3.50;;;12.60;71.10;;;;;;4954149;28;20046;-67
2023/05/10 02:20:13;;;;;;;5.72;3.67;;;12.50;71.40;;;;;;4972538;28;20059;-67
2023/05/10 02:22:41;;;;;;;5.40;3.63;;;12.50;71.70;;;;;;4948628;28;20582;-67
2023/05/10 02:25:09;;;;;;;7.32;3.60;;;12.40;71.70;;;;;;4945128;28;20039;-67
2023/05/10 02:27:36;;;;;;;5.80;3.70;;;12.40;72.90;;;;;;4949479;28;20740;-67
2023/05/10 02:30:02;;;;;;;6.10;3.70;;;12.40;72.10;;;;;;4961043;28;20035;-67
2023/05/10 02:32:29;;;;;;;4.57;3.55;;;12.40;71.90;;;;;;4963367;28;20161;-67
2023/05/10 02:34:57;;;;;;;6.28;3.50;;;12.40;72.10;;;;;;4951319;28;20030;-68
2023/05/10 02:37:25;;;;;;;7.30;3.83;;;12.40;72.20;;;;;;4968083;28;20026;-67
2023/05/10 02:39:53;;;;;;;4.68;3.90;;;12.40;72.20;;;;;;4953524;28;20621;-68
2023/05/10 02:42:26;;;;;;;5.57;3.85;;;12.30;72.20;;;;;;4965659;28;20099;-68
2023/05/10 02:44:59;;;;;;;5.72;4.30;;;12.30;72.30;;;;;;4964333;28;20034;-67
2023/05/10 02:47:26;;;;;;;7.28;4.07;;;12.30;72.40;;;;;;4968875;28;20061;-68
2023/05/10 02:49:52;;;;;;;5.97;3.75;;;12.30;72.30;;;;;;4966497;28;20069;-67
2023/05/10 02:52:26;;;;;;;6.20;4.50;;;12.30;72.40;;;;;;4952884;28;20121;-68
2023/05/10 02:54:56;;;;;;;6.60;4.40;;;12.20;72.80;;;;;;4960364;28;20854;-68
2023/05/10 02:57:26;;;;;;;5.65;4.10;;;12.20;72.80;;;;;;4928234;28;20142;-67
2023/05/10 02:59:52;;;;;;;6.03;3.75;;;12.10;72.70;;;;;;4963597;28;20083;-67
2023/05/10 03:02:17;;;;;;;6.53;4.00;;;12.10;73.30;;;;;;4951958;28;20133;-67
2023/05/10 03:04:43;;;;;;;7.13;4.40;;;12.00;73.10;;;;;;4968996;28;20038;-67
2023/05/10 03:07:09;;;;;;;7.15;4.00;;;12.10;73.80;;;;;;4964836;28;20054;-67
2023/05/10 03:09:36;;;;;;;9.13;4.20;;;12.10;73.80;;;;;;4946113;28;20030;-67
2023/05/10 03:12:15;;;;;;;5.68;3.60;;;12.10;73.80;;;;;;4963859;28;20691;-67
2023/05/10 03:15:11;;;;;;;6.65;3.78;;;12.00;73.90;;;;;;4947865;28;20035;-67
2023/05/10 03:17:48;;;;;;;5.78;4.20;;;12.00;73.70;;;;;;4945821;28;20040;-68
2023/05/10 03:20:38;;;;;;;6.55;4.57;;;11.90;73.70;;;;;;4949032;28;20059;-67
2023/05/10 03:23:16;;;;;;;6.50;4.22;;;11.80;73.70;;;;;;4963160;28;20034;-67
2023/05/10 03:25:43;;;;;;;5.07;3.80;;;11.80;74.20;;;;;;4949466;28;20061;-67
2023/05/10 03:28:11;;;;;;;5.75;4.50;;;11.90;74.30;;;;;;4946170;28;20054;-67
2023/05/10 03:30:38;;;;;;;6.53;4.30;;;11.80;74.60;;;;;;4966669;28;20848;-67
2023/05/10 03:33:07;;;;;;;7.75;4.68;;;11.80;74.70;;;;;;4949188;28;20035;-67
2023/05/10 03:35:35;;;;;;;8.63;4.38;;;11.80;74.90;;;;;;4949652;28;20041;-67
2023/05/10 03:38:01;;;;;;;8.80;4.45;;;11.80;74.90;;;;;;4952075;28;20410;-67
2023/05/10 03:40:31;;;;;;;6.40;4.35;;;11.80;75.00;;;;;;4950289;28;20578;-67
2023/05/10 03:43:01;;;;;;;9.63;4.75;;;11.80;75.50;;;;;;4945024;28;20840;-67
2023/05/10 03:45:27;;;;;;;6.32;4.68;;;11.70;75.50;;;;;;4944640;28;20035;-67
2023/05/10 03:47:53;;;;;;;7.80;4.40;;;11.70;75.40;;;;;;4948357;28;20042;-67
2023/05/10 03:50:20;;;;;;;5.30;3.83;;;11.70;75.30;;;;;;4949679;28;20037;-67
2023/05/10 03:52:46;;;;;;;7.53;4.18;;;11.70;75.60;;;;;;4950758;28;20091;-67
2023/05/10 03:55:12;;;;;;;7.43;4.50;;;11.70;75.50;;;;;;4948043;28;20026;-67
2023/05/10 03:57:38;;;;;;;5.50;4.18;;;11.70;76.00;;;;;;4940427;28;20030;-67
2023/05/10 04:00:06;;;;;;;8.18;4.10;;;11.70;75.80;;;;;;4953316;28;20030;-67
2023/05/10 04:02:40;;;;;;;6.22;4.05;;;11.70;75.80;;;;;;4965333;28;20038;-67
2023/05/10 04:05:08;;;;;;;6.35;4.63;;;11.70;75.80;;;;;;4950224;28;20057;-67
2023/05/10 04:07:34;;;;;;;6.50;3.95;;;11.80;76.20;;;;;;4943845;28;20026;-67
2023/05/10 04:10:00;;;;;;;6.50;4.55;;;11.70;75.80;;;;;;4945188;28;20039;-67
2023/05/10 04:12:26;;;;;;;8.52;4.75;;;11.70;76.20;;;;;;4961071;28;20050;-67
2023/05/10 04:14:52;;;;;;;4.75;3.85;;;11.80;76.40;;;;;;4963812;28;20097;-67
2023/05/10 04:17:18;;;;;;;10.38;4.07;;;11.80;76.30;;;;;;4968244;28;20081;-67
2023/05/10 04:19:43;;;;;;;8.15;4.45;;;11.80;76.00;;;;;;4953702;28;20042;-67
2023/05/10 04:22:09;;;;;;;6.30;4.18;;;11.70;76.40;;;;;;4968561;28;20035;-67
2023/05/10 04:24:35;;;;;;;8.57;4.63;;;11.80;76.20;;;;;;4971951;28;20045;-67
2023/05/10 04:27:00;;;;;;;6.47;4.38;;;11.80;76.10;;;;;;4968874;28;20026;-67
2023/05/10 04:29:26;;;;;;;8.30;4.43;;;11.80;75.80;;;;;;4966380;28;20042;-67
2023/05/10 04:31:53;;;;;;;5.63;4.03;;;11.80;76.20;;;;;;4967882;28;20077;-67
2023/05/10 04:34:20;;;;;;;6.05;4.35;;;11.80;76.20;;;;;;4962788;28;20046;-68
2023/05/10 04:36:46;;;;;;;8.25;4.32;;;11.90;76.30;;;;;;4966120;28;20034;-67
2023/05/10 04:39:13;;;;;;;6.88;4.43;;;11.90;76.40;;;;;;4962391;28;20680;-67
2023/05/10 04:41:39;;;;;;;9.32;4.53;;;11.90;76.50;;;;;;4966120;28;20027;-67
2023/05/10 04:44:06;;;;;;;6.07;4.05;;;11.90;76.20;;;;;;4967887;28;20043;-67
2023/05/10 04:46:31;;;;;;;5.63;3.55;;;11.90;76.50;;;;;;4969881;28;20041;-68
2023/05/10 04:48:57;;;;;;;5.47;4.18;;;12.00;76.70;;;;;;4953420;28;20372;-67
2023/05/10 04:51:23;;;;;;;6.65;4.05;;;12.10;76.40;;;;;;4973417;28;20050;-68
2023/05/10 04:53:49;;;;;;;7.00;3.65;;;12.20;76.00;;;;;;4967284;28;20387;-67
2023/05/10 04:56:15;;;;;;;5.38;3.55;;;12.20;75.90;;;;;;4970804;28;20493;-67
2023/05/10 04:58:41;;;;;;;7.03;3.35;;;12.10;75.70;;;;;;4969561;28;20047;-67
2023/05/10 05:01:10;;;;;;;5.72;4.15;;;12.10;76.00;;;;;;4972561;28;20081;-67
2023/05/10 05:03:36;;;;;;;4.75;3.15;;;12.20;75.60;;;;;;4968568;28;20127;-67
2023/05/10 05:06:03;;;;;;;5.25;3.50;;;12.20;76.10;;;;;;4971934;28;20050;-68
2023/05/10 05:08:28;;;;;;;8.10;3.90;;;12.20;75.70;;;;;;4967080;28;20031;-68
2023/05/10 05:10:54;;;;;;;6.38;3.58;;;12.40;75.80;;;;;;4969540;28;20593;-67
2023/05/10 05:13:20;;;;;;;5.25;3.20;;;12.60;75.50;;;;;;4973651;28;20490;-67
2023/05/10 05:15:46;;;;;;;6.45;3.65;;;12.80;74.20;;;;;;4970299;28;20035;-68
2023/05/10 05:18:12;;;;;;;4.90;3.28;;;12.90;74.40;;;;;;4971887;28;20453;-67
2023/05/10 05:20:37;;;;;;;5.18;3.30;;;13.10;73.60;;;;;;4967936;28;20031;-67
2023/05/10 05:23:03;;;;;;;6.93;3.22;;;13.20;73.40;;;;;;4968517;28;20046;-68
2023/05/10 05:25:29;;;;;;;7.38;3.28;;;13.50;72.90;;;;;;4970142;28;20048;-67
2023/05/10 05:27:55;;;;;;;5.47;3.08;;;13.90;71.50;;;;;;4972376;28;20031;-68
2023/05/10 05:30:20;;;;;;;4.15;2.78;;;14.10;70.40;;;;;;4970457;28;20029;-68
2023/05/10 05:32:49;;;;;;;6.18;3.35;;;14.30;69.50;;;;;;4954477;28;20043;-68
2023/05/10 05:35:15;;;;;;;6.75;3.17;;;14.70;69.00;;;;;;4969091;28;20053;-68
2023/05/10 05:37:40;;;;;;;6.00;3.05;;;15.00;67.30;;;;;;4975578;28;20034;-68
2023/05/10 05:40:07;;;;;;;5.32;2.92;;;15.50;67.00;;;;;;4975765;28;20046;-68
2023/05/10 05:42:32;;;;;;;5.65;3.05;;;16.10;65.90;;;;;;4970927;28;20106;-68
2023/05/10 05:44:58;;;;;;;4.68;2.50;;;16.70;62.70;;;;;;4968819;28;20125;-68
2023/05/10 05:47:24;;;;;;;4.32;2.70;;;17.00;60.90;;;;;;4970018;28;20030;-68
2023/05/10 05:49:50;;;;;;;3.70;2.88;;;16.90;61.00;;;;;;4975990;28;20453;-68
2023/05/10 05:52:16;;;;;;;3.88;2.90;;;16.80;61.00;;;;;;4970083;28;20064;-68
2023/05/10 05:54:42;;;;;;;6.78;3.10;;;16.70;61.60;;;;;;4966367;28;20038;-68
2023/05/10 05:57:08;;;;;;;3.78;3.38;;;16.60;61.70;;;;;;4964890;28;20121;-68
2023/05/10 05:59:34;;;;;;;5.38;3.63;;;16.60;62.40;;;;;;4952315;28;20870;-68
2023/05/10 06:02:00;;;;;;;4.00;2.65;;;16.60;62.30;;;;;;4955353;28;20031;-68
2023/05/10 06:04:26;;;;;;;6.15;2.53;;;16.70;62.10;;;;;;4962228;28;20042;-68
2023/05/10 06:06:52;;;;;;;3.70;2.42;;;17.00;61.60;;;;;;4972437;28;20034;-68
2023/05/10 06:09:17;;;;;;;4.40;3.38;;;17.00;60.40;;;;;;4964072;28;20045;-68
2023/05/10 06:11:43;;;;;;;3.92;2.92;;;17.20;60.80;;;;;;4965499;28;20042;-68
2023/05/10 06:14:09;;;;;;;5.57;2.80;;;17.70;59.30;;;;;;4964939;28;20034;-68
2023/05/10 06:16:35;;;;;;;6.07;3.00;;;17.90;59.00;;;;;;4962316;28;20042;-68
2023/05/10 06:19:01;;;;;;;5.35;2.83;;;17.90;58.80;;;;;;4965481;28;20438;-68
2023/05/10 06:21:26;;;;;;;3.75;2.75;;;17.60;60.60;;;;;;4969805;28;20030;-69
2023/05/10 06:23:52;;;;;;;4.75;2.95;;;17.40;60.50;;;;;;4965763;28;20054;-68
2023/05/10 06:26:18;;;;;;;5.03;3.22;;;17.30;59.90;;;;;;4960507;28;20893;-68
2023/05/10 06:28:44;;;;;;;8.40;3.13;;;17.20;60.70;;;;;;4968669;28;20734;-68
2023/05/10 06:31:11;;;;;;;4.00;2.70;;;17.10;61.50;;;;;;4962624;28;20477;-68
2023/05/10 06:33:37;;;;;;;3.78;2.88;;;17.10;62.10;;;;;;4962345;28;20035;-68
2023/05/10 06:36:03;;;;;;;4.50;3.22;;;17.10;60.90;;;;;;4962184;28;20031;-68
2023/05/10 06:38:29;;;;;;;3.88;2.85;;;16.90;61.30;;;;;;4964335;28;20075;-68
2023/05/10 06:40:55;;;;;;;4.47;2.85;;;17.00;62.30;;;;;;4967615;28;20647;-68
2023/05/10 06:43:21;;;;;;;5.25;2.80;;;17.20;62.00;;;;;;4966794;28;20036;-68
2023/05/10 06:45:48;;;;;;;4.53;2.80;;;17.20;62.50;;;;;;4954435;28;20498;-68
2023/05/10 06:48:14;;;;;;;8.43;2.80;;;17.00;61.80;;;;;;4966150;28;20517;-68
2023/05/10 06:50:39;;;;;;;4.10;2.75;;;16.80;61.90;;;;;;4965723;28;20030;-68
2023/05/10 06:53:05;;;;;;;4.25;2.45;;;16.60;63.90;;;;;;4965253;28;20042;-68
2023/05/10 06:55:31;;;;;;;3.42;2.92;;;16.50;62.90;;;;;;4963454;28;20039;-68
2023/05/10 06:57:57;;;;;;;4.75;2.50;;;16.40;63.80;;;;;;4965511;28;20216;-68
2023/05/10 07:00:22;;;;;;;6.18;2.65;;;16.50;63.50;;;;;;4961052;28;20398;-69
2023/05/10 07:02:48;;;;;;;4.32;2.72;;;16.30;63.30;;;;;;4965599;28;20633;-68
2023/05/10 07:05:14;;;;;;;6.22;2.22;;;16.30;63.10;;;;;;4961616;28;20042;-68
2023/05/10 07:07:40;;;;;;;3.55;2.50;;;16.30;64.50;;;;;;4968117;28;20058;-68
2023/05/10 07:10:07;;;;;;;4.47;2.30;;;16.40;64.00;;;;;;4960621;28;20043;-68
2023/05/10 07:12:33;;;;;;;4.80;2.20;;;16.50;63.10;;;;;;4964567;28;20088;-68
2023/05/10 07:14:59;;;;;;;6.57;2.55;;;16.50;62.80;;;;;;4962411;28;20843;-69
2023/05/10 07:17:25;;;;;;;6.55;2.38;;;16.60;63.20;;;;;;4964851;28;20031;-68
2023/05/10 07:19:50;;;;;;;4.53;2.50;;;16.50;62.90;;;;;;4962601;28;20559;-68
2023/05/10 07:22:16;;;;;;;5.82;2.63;;;16.40;63.40;;;;;;4960745;28;20027;-68
2023/05/10 07:24:43;;;;;;;3.47;2.60;;;16.40;63.40;;;;;;4965342;28;20121;-68
2023/05/10 07:27:08;;;;;;;3.00;2.50;;;16.50;63.60;;;;;;4965394;28;20150;-68
2023/05/10 07:29:35;;;;;;;4.43;2.30;;;16.60;63.80;;;;;;4963070;28;20325;-68
2023/05/10 07:32:01;;;;;;;5.00;2.75;;;16.70;63.90;;;;;;4965533;28;20034;-68
2023/05/10 07:34:28;;;;;;;8.07;2.42;;;17.00;64.10;;;;;;4923988;28;20507;-68
2023/05/10 07:36:53;;;;;;;4.05;2.67;;;17.20;62.50;;;;;;4963973;28;20966;-68
2023/05/10 07:39:20;;;;;;;9.65;2.90;;;17.20;63.50;;;;;;4948588;28;20046;-68
2023/05/10 07:41:46;;;;;;;4.85;2.70;;;17.10;63.20;;;;;;4967812;28;20074;-68
2023/05/10 07:44:12;;;;;;;3.50;2.45;;;17.00;62.50;;;;;;4964159;28;20046;-68
2023/05/10 07:46:38;;;;;;;3.65;2.30;;;17.10;63.70;;;;;;4968883;28;20034;-68
2023/05/10 07:49:04;;;;;;;2.88;2.15;;;17.30;63.50;;;;;;4961829;28;20089;-68
2023/05/10 07:51:30;;;;;;;6.95;2.60;;;17.50;63.50;;;;;;4954134;28;20068;-68
2023/05/10 07:53:57;;;;;;;4.30;2.13;;;17.70;61.90;;;;;;4966633;28;20038;-66
2023/05/10 07:56:32;;;;;;;3.75;2.20;;;17.70;61.60;;;;;;4965127;28;20541;-68
2023/05/10 07:59:03;;;;;;;4.28;2.50;;;17.80;61.60;;;;;;4965880;28;20042;-68
2023/05/10 08:01:33;;;;;;;10.20;3.03;;;17.90;62.00;;;;;;4965129;28;20039;-68
2023/05/10 08:04:00;;;;;;;3.53;2.28;;;18.00;61.20;;;;;;4956085;28;20530;-68
2023/05/10 08:06:29;;;;;;;3.97;2.33;;;18.00;61.60;;;;;;4971254;28;20027;-67
2023/05/10 08:08:56;;;;;;;3.25;2.22;;;18.00;60.50;;;;;;4968237;28;20030;-70
2023/05/10 08:11:21;;;;;;;2.30;2.10;;;18.10;61.20;;;;;;4969689;28;20038;-69
2023/05/10 08:13:49;;;;;;;3.90;2.47;;;18.10;60.30;;;;;;4971047;28;20809;-70
2023/05/10 08:16:16;;;;;;;4.20;2.97;;;18.10;61.00;;;;;;4968239;28;20563;-68
2023/05/10 08:18:44;;;;;;;3.17;2.28;;;18.40;62.00;;;;;;4952720;28;20027;-68
2023/05/10 08:21:11;;;;;;;2.97;2.10;;;18.40;59.90;;;;;;4965857;28;20039;-68
2023/05/10 08:23:37;;;;;;;3.53;2.17;;;18.40;61.40;;;;;;4962658;28;20166;-69
2023/05/10 08:26:03;;;;;;;6.28;1.98;;;18.30;60.70;;;;;;4968508;28;20031;-68
2023/05/10 08:28:28;;;;;;;4.05;2.33;;;18.40;60.80;;;;;;4966372;28;20023;-68
2023/05/10 08:30:54;;;;;;;6.25;2.53;;;18.40;61.00;;;;;;4969025;28;20039;-68
2023/05/10 08:33:20;;;;;;;3.90;2.20;;;18.50;61.20;;;;;;4971156;28;20077;-68
2023/05/10 08:35:46;;;;;;;2.33;1.90;;;18.50;60.90;;;;;;4970108;28;20049;-68
2023/05/10 08:38:12;;;;;;;5.47;2.90;;;18.70;60.60;;;;;;4973553;28;20101;-68
2023/05/10 08:40:41;;;;;;;2.83;2.13;;;18.90;60.00;;;;;;4971159;28;20756;-67
2023/05/10 08:43:10;;;;;;;4.35;3.20;;;19.00;60.30;;;;;;4969356;28;20513;-64
2023/05/10 08:45:40;;;;;;;6.88;3.45;;;19.20;59.60;;;;;;4965801;28;20758;-64
2023/05/10 08:48:08;;;;;;;5.47;3.50;;;19.30;58.80;;;;;;4975333;28;20058;-65
2023/05/10 08:50:38;;;;;;;6.78;3.10;;;19.50;58.40;;;;;;4968149;28;20041;-64
2023/05/10 08:53:09;;;;;;;4.75;2.65;;;19.70;58.50;;;;;;4969653;28;20042;-64
2023/05/10 08:55:38;;;;;;;5.43;1.98;;;20.00;58.10;;;;;;4970401;28;20032;-64
2023/05/10 08:58:05;;;;;;;4.22;2.25;;;20.30;56.40;;;;;;4968695;28;20035;-64
2023/05/10 09:00:32;;;;;;;6.00;2.45;;;20.70;56.90;;;;;;4968534;28;20062;-64
2023/05/10 09:03:02;;;;;;;3.97;2.13;;;21.00;55.60;;;;;;4969310;28;20045;-64
2023/05/10 09:05:28;;;;;;;2.70;2.00;;;21.10;54.90;;;;;;4968630;28;20061;-65
2023/05/10 09:07:54;;;;;;;2.70;1.98;;;21.30;54.50;;;;;;4962686;28;20598;-64
2023/05/10 09:10:21;;;;;;;3.72;2.17;;;21.60;54.50;;;;;;4969188;28;20368;-64
2023/05/10 09:12:48;;;;;;;4.25;2.03;;;21.70;53.80;;;;;;4970238;28;20386;-64
2023/05/10 09:15:19;;;;;;;4.20;3.10;;;21.70;53.50;;;;;;4967594;28;20050;-64
2023/05/10 09:17:46;;;;;;;9.68;3.05;;;21.80;54.00;;;;;;4963103;28;20050;-65
2023/05/10 09:20:11;;;;;;;3.45;2.58;;;21.80;53.70;;;;;;4968022;28;20074;-65
2023/05/10 09:22:38;;;;;;;4.97;3.33;;;21.90;53.50;;;;;;4946354;28;20035;-64
2023/05/10 09:25:12;;;;;;;5.47;2.45;;;21.90;53.60;;;;;;4966500;28;20049;-65
2023/05/10 09:27:45;;;;;;;2.42;2.15;;;22.00;53.50;;;;;;4971113;28;20026;-64
2023/05/10 09:30:16;;;;;;;2.58;1.80;;;22.00;53.60;;;;;;4960654;28;20054;-64
2023/05/10 09:32:44;;;;;;;4.15;2.13;;;22.00;52.30;;;;;;4966428;28;20438;-64
2023/05/10 09:35:20;;;;;;;3.45;2.40;;;22.10;53.30;;;;;;4967092;28;20575;-64
2023/05/10 09:37:48;;;;;;;6.05;2.15;;;22.20;53.30;;;;;;4966757;28;20042;-64
2023/05/10 09:40:19;;;;;;;5.93;1.80;;;22.40;53.00;;;;;;4962672;28;20514;-65
2023/05/10 09:43:04;;;;;;;2.45;2.00;;;22.70;52.40;;;;;;4967046;28;20050;-64
2023/05/10 09:45:31;;;;;;;3.70;1.88;;;22.80;51.10;;;;;;4959120;28;20023;-65
2023/05/10 09:47:58;;;;;;;2.70;2.45;;;23.00;51.80;;;;;;4967420;28;20034;-65
2023/05/10 09:50:25;;;;;;;10.00;4.78;;;23.00;51.50;;;;;;4970094;28;20030;-64
2023/05/10 09:52:51;;;;;;;14.40;9.30;;;23.00;52.20;;;;;;4966922;28;20030;-65
2023/05/10 09:55:19;;;;;;;7.47;4.65;;;23.20;51.80;;;;;;4965780;28;20496;-65
2023/05/10 09:57:47;;;;;;;8.02;5.65;;;23.40;51.60;;;;;;4968640;28;20157;-65
2023/05/10 10:00:18;;;;;;;8.30;3.53;;;23.50;50.90;;;;;;4961253;28;20875;-65
2023/05/10 10:02:45;;;;;;;8.45;3.47;;;23.40;50.30;;;;;;4962656;28;20047;-65
2023/05/10 10:05:11;;;;;;;7.40;3.20;;;23.20;50.00;;;;;;4959107;28;20049;-65
2023/05/10 10:07:37;;;;;;;3.72;2.20;;;23.30;51.40;;;;;;4970275;28;20026;-65
2023/05/10 10:10:04;;;;;;;3.58;2.50;;;23.50;49.80;;;;;;4969948;28;20038;-65
2023/05/10 10:12:31;;;;;;;4.05;2.25;;;23.50;51.20;;;;;;4962584;28;20110;-65
2023/05/10 10:14:58;;;;;;;3.13;2.65;;;23.30;50.70;;;;;;4963890;28;20570;-65
2023/05/10 10:17:27;;;;;;;3.03;1.60;;;23.10;50.90;;;;;;4961567;28;20053;-65
2023/05/10 10:19:54;;;;;;;3.55;2.15;;;23.20;50.70;;;;;;4965610;28;20109;-64
2023/05/10 10:22:20;;;;;;;7.63;2.10;;;23.30;49.30;;;;;;4966290;28;20042;-65
2023/05/10 10:24:46;;;;;;;2.50;2.00;;;23.30;50.30;;;;;;4968604;28;20109;-65
2023/05/10 10:27:35;;;;;;;2.75;1.75;;;23.30;50.90;;;;;;4963510;28;20799;-64
2023/05/10 10:30:09;;;;;;;2.78;1.88;;;23.50;50.20;;;;;;4966968;28;20030;-64
2023/05/10 10:33:07;;;;;;;4.82;1.75;;;24.00;49.90;;;;;;4962251;28;20039;-64
2023/05/10 10:35:34;;;;;;;5.35;3.28;;;24.10;48.10;;;;;;4967444;28;20038;-64
2023/05/10 10:38:00;;;;;;;10.35;4.35;;;24.20;50.30;;;;;;4965177;28;20096;-66
2023/05/10 10:40:28;;;;;;;8.88;5.03;;;24.50;49.20;;;;;;4963666;28;20035;-64
2023/05/10 10:42:55;;;;;;;3.95;3.05;;;24.50;48.20;;;;;;4963859;28;20035;-66
2023/05/10 10:45:22;;;;;;;5.28;3.50;;;24.40;47.50;;;;;;4963766;28;20641;-65
2023/05/10 10:47:48;;;;;;;3.22;2.15;;;24.30;49.10;;;;;;4968294;28;20026;-65
2023/05/10 10:50:15;;;;;;;4.03;2.50;;;24.20;47.70;;;;;;4959712;28;20039;-66
2023/05/10 10:52:43;;;;;;;3.92;2.40;;;24.30;48.30;;;;;;4969136;28;20034;-66
2023/05/10 10:55:14;;;;;;;2.90;2.05;;;24.40;48.90;;;;;;4963936;28;20088;-65
2023/05/10 10:57:40;;;;;;;4.05;2.33;;;24.40;48.20;;;;;;4964328;28;20026;-64
2023/05/10 11:00:24;;;;;;;4.88;2.10;;;24.30;48.30;;;;;;4969716;28;20085;-65
2023/05/10 11:03:14;;;;;;;3.00;2.03;;;24.20;48.70;;;;;;4967525;28;20066;-65
2023/05/10 11:05:57;;;;;;;9.52;4.35;;;24.10;49.10;;;;;;4965186;28;20023;-66
2023/05/10 11:08:31;;;;;;;4.05;2.60;;;23.70;49.20;;;;;;4964578;28;20023;-65
2023/05/10 11:10:59;;;;;;;5.13;2.72;;;23.60;49.20;;;;;;4970209;28;20782;-64
2023/05/10 11:13:48;;;;;;;2.80;1.83;;;23.40;51.20;;;;;;4962843;28;20114;-66
2023/05/10 11:16:24;;;;;;;3.67;2.38;;;23.30;48.50;;;;;;4965126;28;20081;-64
2023/05/10 11:19:02;;;;;;;2.08;1.80;;;23.30;49.50;;;;;;4967630;28;20038;-64
2023/05/10 11:21:32;;;;;;;;;;;23.20;48.90;;;;;;4958623;28;20058;-62
2023/05/10 11:23:59;;;;;;;5.20;2.20;;;23.20;50.90;;;;;;4965109;28;19961;-67
2023/05/10 11:26:30;;;;;;;2.55;1.85;;;23.10;51.00;;;;;;4964767;28;20563;-61
2023/05/10 11:28:56;;;;;;;2.10;1.80;;;23.00;50.80;;;;;;4967771;28;20034;-62
2023/05/10 11:31:22;;;;;;;4.75;2.20;;;23.00;51.40;;;;;;4966656;28;20039;-63
2023/05/10 11:33:50;;;;;;;1.85;1.60;;;22.90;50.60;;;;;;4969393;28;20034;-63
2023/05/10 11:36:18;;;;;;;2.45;1.65;;;22.80;51.30;;;;;;4968568;28;20038;-63
2023/05/10 11:38:44;;;;;;;2.50;1.60;;;22.90;51.40;;;;;;4966784;28;20751;-62
2023/05/10 11:41:12;;;;;;;2.30;1.90;;;23.00;51.50;;;;;;4963895;28;20263;-63
2023/05/10 11:43:39;;;;;;;1.95;1.67;;;23.00;49.90;;;;;;4969922;28;20048;-63
2023/05/10 11:46:11;;;;;;;4.70;1.67;;;23.10;50.10;;;;;;4965231;28;20034;-63
2023/05/10 11:48:39;;;;;;;5.28;1.83;;;23.10;49.80;;;;;;4970441;28;20785;-63
2023/05/10 11:51:06;;;;;;;3.70;2.80;;;23.00;50.30;;;;;;4971923;28;20051;-63
2023/05/10 11:53:33;;;;;;;7.28;2.47;;;23.10;50.60;;;;;;4969621;28;20031;-63
2023/05/10 11:56:09;;;;;;;3.70;2.20;;;23.00;51.40;;;;;;4972831;28;20045;-63
2023/05/10 11:58:39;;;;;;;4.00;2.10;;;22.90;51.70;;;;;;4968047;28;20078;-64
2023/05/10 12:01:06;;;;;;;3.08;2.50;;;22.90;51.60;;;;;;4965681;28;20049;-64
2023/05/10 12:03:33;;;;;;;3.20;2.10;;;23.00;51.50;;;;;;4960171;28;20066;-65
2023/05/10 12:06:00;;;;;;;3.90;2.10;;;22.90;51.20;;;;;;4969972;28;20158;-65
2023/05/10 12:08:27;;;;;;;2.88;1.83;;;22.80;50.90;;;;;;4961317;28;20474;-65
2023/05/10 12:11:07;;;;;;;2.90;1.75;;;22.90;50.90;;;;;;4966247;28;20034;-66
2023/05/10 12:13:39;;;;;;;5.72;1.50;;;22.90;50.00;;;;;;4956542;28;20619;-66
2023/05/10 12:16:18;;;;;;;3.67;1.88;;;23.00;51.50;;;;;;4950924;28;20117;-66
2023/05/10 12:18:44;;;;;;;3.40;1.90;;;23.20;51.40;;;;;;4963058;28;20537;-65
2023/05/10 12:21:11;;;;;;;5.10;1.60;;;23.40;50.30;;;;;;4965968;28;20108;-64
2023/05/10 12:23:38;;;;;;;2.40;1.90;;;23.50;50.10;;;;;;4960721;28;20030;-65
2023/05/10 12:26:05;;;;;;;5.63;1.55;;;23.50;50.60;;;;;;4966906;28;20092;-65
2023/05/10 12:28:32;;;;;;;3.25;1.98;;;23.50;49.20;;;;;;4965412;28;20033;-66
2023/05/10 12:30:59;;;;;;;2.08;1.60;;;23.40;50.40;;;;;;4958616;28;20063;-64
2023/05/10 12:33:25;;;;;;;2.95;1.85;;;23.40;49.00;;;;;;4962032;28;20443;-66
2023/05/10 12:35:53;;;;;;;7.60;2.15;;;23.40;49.10;;;;;;4968434;28;20042;-63
2023/05/10 12:38:49;;;;;;;4.45;1.70;;;23.40;49.10;;;;;;4968714;28;20078;-63
2023/05/10 12:41:16;;;;;;;;;;;23.50;50.80;;;;;;4967524;28;20154;-64
2023/05/10 12:43:42;;;;;;;5.07;2.10;;;23.50;49.50;;;;;;4969114;28;19917;-63
2023/05/10 12:46:09;;;;;;;2.13;1.92;;;23.40;48.80;;;;;;4967180;28;20042;-63
2023/05/10 12:48:36;;;;;;;3.88;2.03;;;23.30;48.40;;;;;;4966489;28;20051;-64
2023/05/10 12:51:04;;;;;;;2.50;1.90;;;23.40;49.00;;;;;;4967718;28;20732;-63
2023/05/10 12:53:30;;;;;;;3.47;1.50;;;23.40;49.00;;;;;;4965242;28;20836;-64